sensor_id;sensor_type;location;lat;lon;timestamp;pressure;altitude;pressure_sealevel;temperature;humidity
68226;BME280;55045;49.410;11.030;2023-05-12T00:01:46;97909.81;;;9.63;100.00
68226;BME280;55045;49.410;11.030;2023-05-12T00:04:49;97908.50;;;9.55;100.00
68226;BME280;55045;49.410;11.030;2023-05-12T00:07:54;97913.44;;;9.95;100.00
68226;BME280;55045;49.410;11.030;2023-05-12T00:10:57;97919.28;;;9.45;100.00
68226;BME280;55045;49.410;11.030;2023-05-12T00:14:00;97911.09;;;9.55;100.00
68226;BME280;55045;49.410;11.030;2023-05-12T00:17:04;97914.28;;;9.60;100.00
68226;BME280;55045;49.410;11.030;2023-05-12T00:20:09;97919.13;;;9.48;100.00
68226;BME280;55045;49.410;11.030;2023-05-12T00:23:14;97911.84;;;9.57;100.00
68226;BME280;55045;49.410;11.030;2023-05-12T00:26:17;97915.09;;;9.43;100.00
68226;BME280;55045;49.410;11.030;2023-05-12T00:29:21;97914.34;;;9.41;100.00
68226;BME280;55045;49.410;11.030;2023-05-12T00:32:25;97915.19;;;9.59;100.00
68226;BME280;55045;49.410;11.030;2023-05-12T00:35:28;97919.44;;;9.42;100.00
68226;BME280;55045;49.410;11.030;2023-05-12T00:38:33;97912.78;;;9.37;100.00
68226;BME280;55045;49.410;11.030;2023-05-12T00:41:38;97907.22;;;9.63;100.00
68226;BME280;55045;49.410;11.030;2023-05-12T00:44:41;97910.59;;;9.46;100.00
68226;BME280;55045;49.410;11.030;2023-05-12T00:47:45;97908.22;;;9.61;100.00
68226;BME280;55045;49.410;11.030;2023-05-12T00:50:48;97903.88;;;9.61;100.00
68226;BME280;55045;49.410;11.030;2023-05-12T00:53:53;97909.34;;;9.55;100.00
68226;BME280;55045;49.410;11.030;2023-05-12T00:56:57;97910.75;;;9.43;100.00
68226;BME280;55045;49.410;11.030;2023-05-12T01:00:01;97831.28;;;8.90;100.00
68226;BME280;55045;49.410;11.030;2023-05-12T01:03:07;97900.69;;;9.37;100.00
68226;BME280;55045;49.410;11.030;2023-05-12T01:06:12;97895.50;;;9.37;100.00
68226;BME280;55045;49.410;11.030;2023-05-12T01:09:20;97903.34;;;9.36;100.00
68226;BME280;55045;49.410;11.030;2023-05-12T01:12:24;97907.41;;;9.41;100.00
68226;BME280;55045;49.410;11.030;2023-05-12T01:15:30;97901.75;;;9.33;100.00
68226;BME280;55045;49.410;11.030;2023-05-12T01:18:35;97885.56;;;9.28;100.00
68226;BME280;55045;49.410;11.030;2023-05-12T01:21:40;97889.47;;;9.56;100.00
68226;BME280;55045;49.410;11.030;2023-05-12T01:24:50;97896.25;;;9.39;100.00
68226;BME280;55045;49.410;11.030;2023-05-12T01:27:56;97874.53;;;9.43;100.00
68226;BME280;55045;49.410;11.030;2023-05-12T01:30:59;97893.81;;;9.36;100.00
68226;BME280;55045;49.410;11.030;2023-05-12T01:34:03;97888.84;;;9.50;100.00
68226;BME280;55045;49.410;11.030;2023-05-12T01:37:06;97892.91;;;9.37;100.00
68226;BME280;55045;49.410;11.030;2023-05-12T01:40:10;97889.22;;;9.43;100.00
68226;BME280;55045;49.410;11.030;2023-05-12T01:43:14;97890.63;;;9.31;100.00
68226;BME280;55045;49.410;11.030;2023-05-12T01:46:18;97887.25;;;9.29;100.00
68226;BME280;55045;49.410;11.030;2023-05-12T01:49:22;97890.91;;;9.25;100.00
68226;BME280;55045;49.410;11.030;2023-05-12T01:52:25;97894.56;;;9.21;100.00
68226;BME280;55045;49.410;11.030;2023-05-12T01:55:29;97892.44;;;9.29;100.00
68226;BME280;55045;49.410;11.030;2023-05-12T01:58:33;97889.16;;;9.26;100.00
68226;BME280;55045;49.410;11.030;2023-05-12T02:01:36;97889.22;;;9.24;100.00
68226;BME280;55045;49.410;11.030;2023-05-12T02:04:41;97881.47;;;9.24;100.00
68226;BME280;55045;49.410;11.030;2023-05-12T02:07:44;97895.75;;;9.14;100.00
68226;BME280;55045;49.410;11.030;2023-05-12T02:10:47;97891.47;;;9.13;100.00
68226;BME280;55045;49.410;11.030;2023-05-12T02:13:52;97882.94;;;9.11;100.00
68226;BME280;55045;49.410;11.030;2023-05-12T02:16:55;97880.69;;;9.22;100.00
68226;BME280;55045;49.410;11.030;2023-05-12T02:19:59;97885.72;;;9.25;100.00
68226;BME280;55045;49.410;11.030;2023-05-12T02:23:03;97884.16;;;9.40;100.00
68226;BME280;55045;49.410;11.030;2023-05-12T02:26:07;97830.50;;;8.88;100.00
68226;BME280;55045;49.410;11.030;2023-05-12T02:29:12;97886.78;;;9.21;100.00
68226;BME280;55045;49.410;11.030;2023-05-12T02:32:15;97881.94;;;9.32;100.00
68226;BME280;55045;49.410;11.030;2023-05-12T02:35:21;97886.41;;;9.29;100.00
68226;BME280;55045;49.410;11.030;2023-05-12T02:38:24;97879.56;;;9.28;100.00
68226;BME280;55045;49.410;11.030;2023-05-12T02:41:28;97882.28;;;9.43;100.00
68226;BME280;55045;49.410;11.030;2023-05-12T02:44:33;97886.38;;;9.30;100.00
68226;BME280;55045;49.410;11.030;2023-05-12T02:47:36;97889.72;;;9.32;100.00
68226;BME280;55045;49.410;11.030;2023-05-12T02:50:39;97886.06;;;9.36;100.00
68226;BME280;55045;49.410;11.030;2023-05-12T02:53:43;97882.03;;;9.31;100.00
68226;BME280;55045;49.410;11.030;2023-05-12T02:56:46;97882.38;;;9.23;100.00
68226;BME280;55045;49.410;11.030;2023-05-12T02:59:50;97885.56;;;9.28;100.00
68226;BME280;55045;49.410;11.030;2023-05-12T03:02:53;97879.38;;;9.32;100.00
68226;BME280;55045;49.410;11.030;2023-05-12T03:05:57;97873.03;;;9.20;100.00
68226;BME280;55045;49.410;11.030;2023-05-12T03:09:00;97872.69;;;9.45;100.00
68226;BME280;55045;49.410;11.030;2023-05-12T03:12:05;97867.69;;;9.23;100.00
68226;BME280;55045;49.410;11.030;2023-05-12T03:15:10;97872.56;;;9.30;100.00
68226;BME280;55045;49.410;11.030;2023-05-12T03:18:14;97879.03;;;9.21;100.00
68226;BME280;55045;49.410;11.030;2023-05-12T03:21:17;97879.06;;;9.19;100.00
68226;BME280;55045;49.410;11.030;2023-05-12T03:24:20;97869.44;;;9.23;100.00
68226;BME280;55045;49.410;11.030;2023-05-12T03:27:23;97877.28;;;9.21;100.00
68226;BME280;55045;49.410;11.030;2023-05-12T03:30:28;97873.69;;;9.24;100.00
68226;BME280;55045;49.410;11.030;2023-05-12T03:34:38;97878.94;;;9.59;100.00
68226;BME280;55045;49.410;11.030;2023-05-12T03:37:42;97880.72;;;9.39;100.00
68226;BME280;55045;49.410;11.030;2023-05-12T03:40:45;97876.41;;;9.40;100.00
68226;BME280;55045;49.410;11.030;2023-05-12T03:43:53;97875.91;;;9.50;100.00
68226;BME280;55045;49.410;11.030;2023-05-12T03:46:56;97876.63;;;9.35;100.00
68226;BME280;55045;49.410;11.030;2023-05-12T03:50:02;97866.34;;;9.34;100.00
68226;BME280;55045;49.410;11.030;2023-05-12T03:53:05;97872.22;;;9.37;100.00
68226;BME280;55045;49.410;11.030;2023-05-12T03:56:09;97866.44;;;9.32;100.00
68226;BME280;55045;49.410;11.030;2023-05-12T03:59:12;97871.16;;;9.41;100.00
68226;BME280;55045;49.410;11.030;2023-05-12T04:02:15;97869.34;;;9.43;100.00
68226;BME280;55045;49.410;11.030;2023-05-12T04:05:21;97870.47;;;9.38;100.00
68226;BME280;55045;49.410;11.030;2023-05-12T04:08:24;97879.84;;;9.40;100.00
68226;BME280;55045;49.410;11.030;2023-05-12T04:11:27;97877.50;;;9.53;100.00
68226;BME280;55045;49.410;11.030;2023-05-12T04:14:30;97867.94;;;9.36;100.00
68226;BME280;55045;49.410;11.030;2023-05-12T04:17:43;97871.78;;;9.46;100.00
68226;BME280;55045;49.410;11.030;2023-05-12T04:20:48;97873.50;;;9.65;100.00
68226;BME280;55045;49.410;11.030;2023-05-12T04:23:52;97876.13;;;9.46;100.00
68226;BME280;55045;49.410;11.030;2023-05-12T04:26:58;97878.13;;;9.58;100.00
68226;BME280;55045;49.410;11.030;2023-05-12T04:30:01;97883.84;;;9.65;100.00
68226;BME280;55045;49.410;11.030;2023-05-12T04:33:09;97884.28;;;9.56;100.00
68226;BME280;55045;49.410;11.030;2023-05-12T04:36:14;97881.13;;;9.85;100.00
68226;BME280;55045;49.410;11.030;2023-05-12T04:39:18;97882.34;;;9.61;100.00
68226;BME280;55045;49.410;11.030;2023-05-12T04:42:21;97871.97;;;9.78;100.00
68226;BME280;55045;49.410;11.030;2023-05-12T04:45:25;97871.88;;;9.79;100.00
68226;BME280;55045;49.410;11.030;2023-05-12T04:48:29;97876.53;;;9.56;100.00
68226;BME280;55045;49.410;11.030;2023-05-12T04:51:33;97879.63;;;9.81;100.00
68226;BME280;55045;49.410;11.030;2023-05-12T04:54:43;97875.00;;;9.69;100.00
68226;BME280;55045;49.410;11.030;2023-05-12T04:57:46;97873.81;;;9.93;100.00
68226;BME280;55045;49.410;11.030;2023-05-12T05:00:49;97875.78;;;9.88;100.00
68226;BME280;55045;49.410;11.030;2023-05-12T05:03:52;97884.41;;;9.71;100.00
68226;BME280;55045;49.410;11.030;2023-05-12T05:06:57;97882.19;;;9.64;100.00
68226;BME280;55045;49.410;11.030;2023-05-12T05:10:01;97891.34;;;9.88;100.00
68226;BME280;55045;49.410;11.030;2023-05-12T05:13:05;97888.91;;;10.02;100.00
68226;BME280;55045;49.410;11.030;2023-05-12T05:16:09;97890.19;;;9.76;100.00
68226;BME280;55045;49.410;11.030;2023-05-12T05:19:13;97895.03;;;9.65;100.00
68226;BME280;55045;49.410;11.030;2023-05-12T05:22:32;97892.84;;;9.75;100.00
68226;BME280;55045;49.410;11.030;2023-05-12T05:25:35;97894.69;;;9.90;100.00
68226;BME280;55045;49.410;11.030;2023-05-12T05:28:39;97893.66;;;10.12;100.00
68226;BME280;55045;49.410;11.030;2023-05-12T05:31:43;97888.75;;;10.05;100.00
68226;BME280;55045;49.410;11.030;2023-05-12T05:34:47;97893.00;;;9.89;100.00
68226;BME280;55045;49.410;11.030;2023-05-12T05:37:51;97901.75;;;10.23;100.00
68226;BME280;55045;49.410;11.030;2023-05-12T05:40:56;97891.56;;;10.01;100.00
68226;BME280;55045;49.410;11.030;2023-05-12T05:44:00;97898.25;;;10.24;100.00
68226;BME280;55045;49.410;11.030;2023-05-12T05:47:04;97897.25;;;10.26;100.00
68226;BME280;55045;49.410;11.030;2023-05-12T05:50:09;97896.38;;;10.08;100.00
68226;BME280;55045;49.410;11.030;2023-05-12T05:53:16;97901.19;;;10.16;100.00
68226;BME280;55045;49.410;11.030;2023-05-12T05:56:20;97900.94;;;10.21;100.00
68226;BME280;55045;49.410;11.030;2023-05-12T05:59:25;97900.63;;;10.09;100.00
68226;BME280;55045;49.410;11.030;2023-05-12T06:02:28;97909.06;;;10.32;100.00
68226;BME280;55045;49.410;11.030;2023-05-12T06:05:33;97912.78;;;10.26;100.00
68226;BME280;55045;49.410;11.030;2023-05-12T06:08:39;97921.88;;;10.35;100.00
68226;BME280;55045;49.410;11.030;2023-05-12T06:11:42;97908.72;;;10.21;100.00
68226;BME280;55045;49.410;11.030;2023-05-12T06:14:45;97921.06;;;10.50;100.00
68226;BME280;55045;49.410;11.030;2023-05-12T06:17:48;97918.44;;;10.34;100.00
68226;BME280;55045;49.410;11.030;2023-05-12T06:20:52;97923.69;;;10.33;100.00
68226;BME280;55045;49.410;11.030;2023-05-12T06:23:56;97925.50;;;10.31;100.00
68226;BME280;55045;49.410;11.030;2023-05-12T06:27:00;97926.88;;;10.38;100.00
68226;BME280;55045;49.410;11.030;2023-05-12T06:30:03;97932.97;;;10.54;100.00
68226;BME280;55045;49.410;11.030;2023-05-12T06:33:07;97929.59;;;10.52;100.00
68226;BME280;55045;49.410;11.030;2023-05-12T06:36:10;97936.63;;;10.50;100.00
68226;BME280;55045;49.410;11.030;2023-05-12T06:39:15;97938.84;;;10.41;100.00
68226;BME280;55045;49.410;11.030;2023-05-12T06:42:18;97933.44;;;10.45;100.00
68226;BME280;55045;49.410;11.030;2023-05-12T06:45:25;97938.63;;;10.45;100.00
68226;BME280;55045;49.410;11.030;2023-05-12T06:48:28;97941.53;;;10.56;100.00
68226;BME280;55045;49.410;11.030;2023-05-12T06:51:31;97936.41;;;10.55;100.00
68226;BME280;55045;49.410;11.030;2023-05-12T06:54:36;97931.91;;;10.58;100.00
68226;BME280;55045;49.410;11.030;2023-05-12T06:57:40;97941.06;;;10.48;100.00
68226;BME280;55045;49.410;11.030;2023-05-12T07:00:43;97938.47;;;10.48;100.00
68226;BME280;55045;49.410;11.030;2023-05-12T07:03:46;97943.03;;;10.60;100.00
68226;BME280;55045;49.410;11.030;2023-05-12T07:06:49;97941.97;;;10.64;100.00
68226;BME280;55045;49.410;11.030;2023-05-12T07:09:54;97941.34;;;10.59;100.00
68226;BME280;55045;49.410;11.030;2023-05-12T07:12:57;97944.88;;;10.58;100.00
68226;BME280;55045;49.410;11.030;2023-05-12T07:16:00;97950.31;;;10.54;100.00
68226;BME280;55045;49.410;11.030;2023-05-12T07:19:04;97948.06;;;10.63;100.00
68226;BME280;55045;49.410;11.030;2023-05-12T07:22:10;97949.50;;;10.69;100.00
68226;BME280;55045;49.410;11.030;2023-05-12T07:25:15;97951.63;;;10.78;100.00
68226;BME280;55045;49.410;11.030;2023-05-12T07:28:18;97952.25;;;10.66;100.00
68226;BME280;55045;49.410;11.030;2023-05-12T07:31:21;97945.53;;;10.62;100.00
68226;BME280;55045;49.410;11.030;2023-05-12T07:34:24;97951.63;;;10.78;100.00
68226;BME280;55045;49.410;11.030;2023-05-12T07:37:28;97938.28;;;10.68;100.00
68226;BME280;55045;49.410;11.030;2023-05-12T07:40:33;97954.50;;;10.89;100.00
68226;BME280;55045;49.410;11.030;2023-05-12T07:43:36;97956.91;;;10.77;100.00
68226;BME280;55045;49.410;11.030;2023-05-12T07:46:39;97967.28;;;11.10;100.00
68226;BME280;55045;49.410;11.030;2023-05-12T07:49:43;97957.34;;;10.85;100.00
68226;BME280;55045;49.410;11.030;2023-05-12T07:52:47;97960.50;;;10.74;100.00
68226;BME280;55045;49.410;11.030;2023-05-12T07:55:52;97957.94;;;10.90;100.00
68226;BME280;55045;49.410;11.030;2023-05-12T07:58:55;97961.63;;;10.86;100.00
68226;BME280;55045;49.410;11.030;2023-05-12T08:01:58;97964.88;;;10.89;100.00
68226;BME280;55045;49.410;11.030;2023-05-12T08:05:02;97965.41;;;10.96;100.00
68226;BME280;55045;49.410;11.030;2023-05-12T08:08:05;97961.56;;;11.03;100.00
68226;BME280;55045;49.410;11.030;2023-05-12T08:11:11;97970.78;;;11.09;100.00
68226;BME280;55045;49.410;11.030;2023-05-12T08:14:14;97972.47;;;11.10;100.00
68226;BME280;55045;49.410;11.030;2023-05-12T08:17:17;97965.69;;;11.23;100.00
68226;BME280;55045;49.410;11.030;2023-05-12T08:20:21;97974.34;;;11.39;100.00
68226;BME280;55045;49.410;11.030;2023-05-12T08:23:24;97972.03;;;11.35;100.00
68226;BME280;55045;49.410;11.030;2023-05-12T08:26:29;97966.38;;;11.42;100.00
68226;BME280;55045;49.410;11.030;2023-05-12T08:29:35;97965.22;;;11.48;100.00
68226;BME280;55045;49.410;11.030;2023-05-12T08:32:39;97962.63;;;11.64;100.00
68226;BME280;55045;49.410;11.030;2023-05-12T08:35:42;97963.56;;;11.78;100.00
68226;BME280;55045;49.410;11.030;2023-05-12T08:38:45;97950.88;;;11.72;100.00
68226;BME280;55045;49.410;11.030;2023-05-12T08:41:51;97952.69;;;11.88;100.00
68226;BME280;55045;49.410;11.030;2023-05-12T08:44:58;97951.66;;;11.90;100.00
68226;BME280;55045;49.410;11.030;2023-05-12T08:48:04;97949.06;;;12.06;100.00
68226;BME280;55045;49.410;11.030;2023-05-12T08:51:09;97953.03;;;12.27;100.00
68226;BME280;55045;49.410;11.030;2023-05-12T08:54:14;97949.38;;;12.60;100.00
68226;BME280;55045;49.410;11.030;2023-05-12T08:57:21;97958.31;;;12.70;100.00
68226;BME280;55045;49.410;11.030;2023-05-12T09:00:27;97967.91;;;12.39;100.00
68226;BME280;55045;49.410;11.030;2023-05-12T09:03:32;97961.16;;;12.21;100.00
68226;BME280;55045;49.410;11.030;2023-05-12T09:06:36;97963.25;;;12.15;100.00
68226;BME280;55045;49.410;11.030;2023-05-12T09:09:43;97981.09;;;12.06;100.00
68226;BME280;55045;49.410;11.030;2023-05-12T09:12:51;97986.47;;;11.88;100.00
68226;BME280;55045;49.410;11.030;2023-05-12T09:15:55;97990.66;;;11.90;100.00
68226;BME280;55045;49.410;11.030;2023-05-12T09:19:01;97994.72;;;11.78;100.00
68226;BME280;55045;49.410;11.030;2023-05-12T09:22:07;98012.50;;;11.70;100.00
68226;BME280;55045;49.410;11.030;2023-05-12T09:25:16;98018.00;;;11.48;100.00
68226;BME280;55045;49.410;11.030;2023-05-12T09:28:21;98024.31;;;11.76;100.00
68226;BME280;55045;49.410;11.030;2023-05-12T09:34:38;98016.28;;;11.65;100.00
68226;BME280;55045;49.410;11.030;2023-05-12T09:37:42;98016.81;;;11.54;100.00
68226;BME280;55045;49.410;11.030;2023-05-12T09:40:45;98014.06;;;11.41;100.00
68226;BME280;55045;49.410;11.030;2023-05-12T09:43:51;98011.56;;;11.56;100.00
68226;BME280;55045;49.410;11.030;2023-05-12T09:46:54;98019.03;;;11.77;100.00
68226;BME280;55045;49.410;11.030;2023-05-12T09:50:00;98015.41;;;11.64;100.00
68226;BME280;55045;49.410;11.030;2023-05-12T09:53:05;98005.72;;;11.68;100.00
68226;BME280;55045;49.410;11.030;2023-05-12T09:56:10;98012.59;;;11.85;100.00
68226;BME280;55045;49.410;11.030;2023-05-12T09:59:14;98001.00;;;12.22;100.00
68226;BME280;55045;49.410;11.030;2023-05-12T10:02:17;97992.88;;;12.58;100.00
68226;BME280;55045;49.410;11.030;2023-05-12T10:05:23;97991.13;;;12.87;100.00
68226;BME280;55045;49.410;11.030;2023-05-12T10:08:32;97986.06;;;13.00;100.00
68226;BME280;55045;49.410;11.030;2023-05-12T10:11:35;97982.13;;;13.07;100.00
68226;BME280;55045;49.410;11.030;2023-05-12T10:14:39;97973.19;;;12.96;100.00
68226;BME280;55045;49.410;11.030;2023-05-12T10:17:43;97973.78;;;12.87;100.00
68226;BME280;55045;49.410;11.030;2023-05-12T10:20:50;97969.47;;;12.72;100.00
68226;BME280;55045;49.410;11.030;2023-05-12T10:23:54;97974.31;;;12.92;100.00
68226;BME280;55045;49.410;11.030;2023-05-12T10:27:00;97978.59;;;13.08;100.00
68226;BME280;55045;49.410;11.030;2023-05-12T10:30:05;97970.69;;;12.95;100.00
68226;BME280;55045;49.410;11.030;2023-05-12T10:33:08;97972.66;;;13.06;100.00
68226;BME280;55045;49.410;11.030;2023-05-12T10:36:18;97978.59;;;12.79;100.00
68226;BME280;55045;49.410;11.030;2023-05-12T10:39:27;97986.09;;;12.69;100.00
68226;BME280;55045;49.410;11.030;2023-05-12T10:42:37;97968.13;;;12.65;100.00
68226;BME280;55045;49.410;11.030;2023-05-12T10:45:40;97971.78;;;12.77;100.00
68226;BME280;55045;49.410;11.030;2023-05-12T10:48:55;97972.34;;;12.96;100.00
68226;BME280;55045;49.410;11.030;2023-05-12T10:52:01;97980.25;;;12.80;100.00
68226;BME280;55045;49.410;11.030;2023-05-12T10:55:10;97984.88;;;12.75;100.00
68226;BME280;55045;49.410;11.030;2023-05-12T10:58:15;97983.41;;;12.71;100.00
68226;BME280;55045;49.410;11.030;2023-05-12T11:01:23;97980.06;;;12.69;100.00
68226;BME280;55045;49.410;11.030;2023-05-12T11:04:38;97989.16;;;12.62;100.00
68226;BME280;55045;49.410;11.030;2023-05-12T11:07:48;97980.06;;;12.69;100.00
68226;BME280;55045;49.410;11.030;2023-05-12T11:10:53;97986.53;;;12.62;100.00
68226;BME280;55045;49.410;11.030;2023-05-12T11:13:56;97990.31;;;12.56;100.00
68226;BME280;55045;49.410;11.030;2023-05-12T11:17:00;97990.28;;;12.72;100.00
68226;BME280;55045;49.410;11.030;2023-05-12T11:20:05;97994.66;;;12.72;100.00
68226;BME280;55045;49.410;11.030;2023-05-12T11:23:22;97981.53;;;12.59;100.00
68226;BME280;55045;49.410;11.030;2023-05-12T11:26:26;97989.50;;;12.56;100.00
68226;BME280;55045;49.410;11.030;2023-05-12T11:29:29;97986.25;;;12.66;100.00
68226;BME280;55045;49.410;11.030;2023-05-12T11:32:32;97992.56;;;12.48;100.00
68226;BME280;55045;49.410;11.030;2023-05-12T11:35:36;97994.16;;;12.65;100.00
68226;BME280;55045;49.410;11.030;2023-05-12T11:38:47;98013.16;;;12.67;100.00
68226;BME280;55045;49.410;11.030;2023-05-12T11:41:51;98008.06;;;12.80;100.00
68226;BME280;55045;49.410;11.030;2023-05-12T11:45:17;98014.94;;;12.81;100.00
68226;BME280;55045;49.410;11.030;2023-05-12T11:48:32;97997.75;;;12.92;100.00
68226;BME280;55045;49.410;11.030;2023-05-12T11:51:40;98001.09;;;12.80;100.00
68226;BME280;55045;49.410;11.030;2023-05-12T11:54:48;97999.97;;;12.84;100.00
68226;BME280;55045;49.410;11.030;2023-05-12T11:57:57;97997.03;;;12.60;100.00
68226;BME280;55045;49.410;11.030;2023-05-12T12:01:08;98018.34;;;12.67;100.00
68226;BME280;55045;49.410;11.030;2023-05-12T12:04:12;98036.91;;;12.15;100.00
68226;BME280;55045;49.410;11.030;2023-05-12T12:07:15;98029.94;;;11.68;100.00
68226;BME280;55045;49.410;11.030;2023-05-12T12:10:20;98052.69;;;11.80;100.00
68226;BME280;55045;49.410;11.030;2023-05-12T12:13:24;98035.34;;;11.64;100.00
68226;BME280;55045;49.410;11.030;2023-05-12T12:16:29;98063.59;;;11.87;100.00
68226;BME280;55045;49.410;11.030;2023-05-12T12:19:32;98071.47;;;11.86;100.00
68226;BME280;55045;49.410;11.030;2023-05-12T12:22:36;98065.06;;;11.75;100.00
68226;BME280;55045;49.410;11.030;2023-05-12T12:25:40;98062.56;;;11.90;100.00
68226;BME280;55045;49.410;11.030;2023-05-12T12:28:44;98068.53;;;12.07;100.00
68226;BME280;55045;49.410;11.030;2023-05-12T12:31:47;98064.38;;;12.35;100.00
68226;BME280;55045;49.410;11.030;2023-05-12T12:34:51;98071.22;;;12.22;100.00
68226;BME280;55045;49.410;11.030;2023-05-12T12:37:55;98063.72;;;12.47;100.00
68226;BME280;55045;49.410;11.030;2023-05-12T12:41:00;98071.94;;;12.39;100.00
68226;BME280;55045;49.410;11.030;2023-05-12T12:44:07;98075.13;;;12.45;100.00
68226;BME280;55045;49.410;11.030;2023-05-12T12:47:11;98062.94;;;12.61;100.00
68226;BME280;55045;49.410;11.030;2023-05-12T12:50:14;98075.94;;;12.45;100.00
68226;BME280;55045;49.410;11.030;2023-05-12T12:53:18;98058.84;;;12.57;100.00
68226;BME280;55045;49.410;11.030;2023-05-12T12:56:22;98058.34;;;12.50;100.00
68226;BME280;55045;49.410;11.030;2023-05-12T12:59:26;98053.47;;;12.44;100.00
68226;BME280;55045;49.410;11.030;2023-05-12T13:02:30;98050.91;;;12.28;100.00
68226;BME280;55045;49.410;11.030;2023-05-12T13:05:33;98047.00;;;12.35;100.00
68226;BME280;55045;49.410;11.030;2023-05-12T13:08:36;98054.81;;;12.35;100.00
68226;BME280;55045;49.410;11.030;2023-05-12T13:11:41;98098.88;;;12.38;100.00
68226;BME280;55045;49.410;11.030;2023-05-12T13:14:44;98098.78;;;12.24;100.00
68226;BME280;55045;49.410;11.030;2023-05-12T13:17:47;98083.78;;;12.29;100.00
68226;BME280;55045;49.410;11.030;2023-05-12T13:20:50;98068.50;;;12.23;100.00
68226;BME280;55045;49.410;11.030;2023-05-12T13:23:55;98076.47;;;12.36;100.00
68226;BME280;55045;49.410;11.030;2023-05-12T13:26:59;98070.09;;;12.26;100.00
68226;BME280;55045;49.410;11.030;2023-05-12T13:30:03;98076.31;;;12.23;100.00
68226;BME280;55045;49.410;11.030;2023-05-12T13:33:07;98079.34;;;12.31;100.00
68226;BME280;55045;49.410;11.030;2023-05-12T13:36:10;98080.06;;;12.33;100.00
68226;BME280;55045;49.410;11.030;2023-05-12T13:39:14;98082.78;;;12.32;100.00
68226;BME280;55045;49.410;11.030;2023-05-12T13:42:22;98077.47;;;12.33;100.00
68226;BME280;55045;49.410;11.030;2023-05-12T13:45:25;98082.13;;;12.28;100.00
68226;BME280;55045;49.410;11.030;2023-05-12T13:48:28;98083.28;;;12.38;100.00
68226;BME280;55045;49.410;11.030;2023-05-12T13:51:31;98088.63;;;12.51;100.00
68226;BME280;55045;49.410;11.030;2023-05-12T13:54:34;98086.19;;;12.48;100.00
68226;BME280;55045;49.410;11.030;2023-05-12T13:57:39;98093.41;;;12.59;100.00
68226;BME280;55045;49.410;11.030;2023-05-12T14:00:42;98072.59;;;12.43;100.00
68226;BME280;55045;49.410;11.030;2023-05-12T14:03:45;98086.19;;;12.48;100.00
68226;BME280;55045;49.410;11.030;2023-05-12T14:06:49;98078.72;;;12.42;100.00
68226;BME280;55045;49.410;11.030;2023-05-12T14:09:52;98077.16;;;12.39;100.00
68226;BME280;55045;49.410;11.030;2023-05-12T14:12:56;98072.19;;;12.51;100.00
68226;BME280;55045;49.410;11.030;2023-05-12T14:15:59;98078.75;;;12.72;100.00
68226;BME280;55045;49.410;11.030;2023-05-12T14:19:03;98078.41;;;12.78;100.00
68226;BME280;55045;49.410;11.030;2023-05-12T14:22:06;98070.22;;;12.70;100.00
68226;BME280;55045;49.410;11.030;2023-05-12T14:25:26;98069.31;;;12.85;100.00
68226;BME280;55045;49.410;11.030;2023-05-12T14:28:32;98063.16;;;12.86;100.00
68226;BME280;55045;49.410;11.030;2023-05-12T14:31:36;98067.53;;;12.86;100.00
68226;BME280;55045;49.410;11.030;2023-05-12T14:34:39;98052.38;;;12.78;100.00
68226;BME280;55045;49.410;11.030;2023-05-12T14:37:42;98062.34;;;12.86;100.00
68226;BME280;55045;49.410;11.030;2023-05-12T14:40:46;98059.66;;;12.87;100.00
68226;BME280;55045;49.410;11.030;2023-05-12T14:43:51;98064.88;;;13.02;100.00
68226;BME280;55045;49.410;11.030;2023-05-12T14:46:54;98064.88;;;13.02;100.00
68226;BME280;55045;49.410;11.030;2023-05-12T14:49:57;98057.91;;;13.02;100.00
68226;BME280;55045;49.410;11.030;2023-05-12T14:53:01;98063.44;;;13.26;100.00
68226;BME280;55045;49.410;11.030;2023-05-12T14:56:04;98064.59;;;12.92;100.00
68226;BME280;55045;49.410;11.030;2023-05-12T14:59:09;98071.31;;;13.10;100.00
68226;BME280;55045;49.410;11.030;2023-05-12T15:02:13;98075.78;;;13.08;100.00
68226;BME280;55045;49.410;11.030;2023-05-12T15:05:16;98085.53;;;13.05;100.00
68226;BME280;55045;49.410;11.030;2023-05-12T15:08:20;98083.00;;;13.19;100.00
68226;BME280;55045;49.410;11.030;2023-05-12T15:11:23;98089.59;;;13.24;100.00
68226;BME280;55045;49.410;11.030;2023-05-12T15:14:28;98102.47;;;13.12;100.00
68226;BME280;55045;49.410;11.030;2023-05-12T15:17:31;98085.53;;;13.05;100.00
68226;BME280;55045;49.410;11.030;2023-05-12T15:20:36;98072.94;;;13.27;100.00
68226;BME280;55045;49.410;11.030;2023-05-12T15:23:39;98067.19;;;13.22;100.00
68226;BME280;55045;49.410;11.030;2023-05-12T15:26:44;98062.53;;;13.27;100.00
68226;BME280;55045;49.410;11.030;2023-05-12T15:29:49;98057.50;;;13.38;100.00
68226;BME280;55045;49.410;11.030;2023-05-12T15:34:38;98049.34;;;13.30;100.00
68226;BME280;55045;49.410;11.030;2023-05-12T15:37:41;98059.28;;;13.38;100.00
68226;BME280;55045;49.410;11.030;2023-05-12T15:40:44;98049.31;;;13.44;100.00
68226;BME280;55045;49.410;11.030;2023-05-12T15:43:47;98049.69;;;13.38;100.00
68226;BME280;55045;49.410;11.030;2023-05-12T15:46:51;98047.47;;;13.32;100.00
68226;BME280;55045;49.410;11.030;2023-05-12T15:49:55;98046.44;;;13.35;100.00
68226;BME280;55045;49.410;11.030;2023-05-12T15:52:58;98044.56;;;13.37;100.00
68226;BME280;55045;49.410;11.030;2023-05-12T15:56:03;98038.91;;;13.30;100.00
68226;BME280;55045;49.410;11.030;2023-05-12T15:59:08;97969.69;;;12.97;100.00
68226;BME280;55045;49.410;11.030;2023-05-12T16:02:12;98039.84;;;13.43;100.00